Time;durP1;ratioP1;P1;durP2;ratioP2;P2;SDS_P1;SDS_P2;PMS_P1;PMS_P2;Temp;Humidity;BMP_temperature;BMP_pressure;BME280_temperature;BME280_humidity;BME280_pressure;Samples;Min_cycle;Max_cycle;Signal;HPM_P1;HPM_P2
2024/01/12 00:00:54;;;;;;;71.87;20.77;;;;;;;-2.83;100.00;97406.19;4980296;28;20222;-68
2024/01/12 00:03:21;;;;;;;66.60;20.57;;;;;;;-2.78;100.00;97406.84;4980628;28;20209;-68
2024/01/12 00:05:48;;;;;;;68.93;22.17;;;;;;;-2.94;100.00;97404.09;4985023;28;20233;-68
2024/01/12 00:08:14;;;;;;;71.17;22.03;;;;;;;-2.73;100.00;97395.38;4982123;28;20206;-68
2024/01/12 00:10:41;;;;;;;63.13;20.90;;;;;;;-2.92;100.00;97398.88;4982758;28;20215;-68
2024/01/12 00:13:08;;;;;;;71.80;20.83;;;;;;;-2.84;100.00;97400.22;4980097;28;20235;-68
2024/01/12 00:15:35;;;;;;;69.67;21.07;;;;;;;-2.90;100.00;97399.66;4979870;28;20258;-68
2024/01/12 00:18:01;;;;;;;73.67;20.20;;;;;;;-3.04;100.00;97407.16;4985474;28;20204;-68
2024/01/12 00:20:29;;;;;;;76.27;21.30;;;;;;;-2.74;100.00;97401.44;4980570;28;20238;-68
2024/01/12 00:22:56;;;;;;;80.27;21.27;;;;;;;-2.72;100.00;97407.38;4979678;28;20205;-68
2024/01/12 00:25:22;;;;;;;76.37;24.60;;;;;;;-2.74;100.00;97408.38;4979131;28;20667;-68
2024/01/12 00:27:49;;;;;;;73.77;19.80;;;;;;;-2.86;100.00;97409.75;4980612;28;20215;-68
2024/01/12 00:30:15;;;;;;;77.83;21.67;;;;;;;-2.87;100.00;97420.13;4979669;28;20210;-68
2024/01/12 00:32:42;;;;;;;80.63;24.27;;;;;;;-2.86;100.00;97409.75;4980082;28;20227;-68
2024/01/12 00:35:09;;;;;;;78.50;23.07;;;;;;;-2.87;100.00;97408.06;4979561;28;20243;-68
2024/01/12 00:37:36;;;;;;;66.53;21.37;;;;;;;-3.22;100.00;97407.97;4979691;28;20203;-68
2024/01/12 00:40:03;;;;;;;86.00;22.30;;;;;;;-3.15;100.00;97401.63;4986337;28;20230;-68
2024/01/12 00:42:30;;;;;;;67.43;20.80;;;;;;;-3.08;100.00;97408.22;4980695;28;20202;-68
2024/01/12 00:44:56;;;;;;;69.17;22.47;;;;;;;-3.18;100.00;97406.06;4979035;28;20207;-68
2024/01/12 00:47:23;;;;;;;73.50;22.13;;;;;;;-3.09;100.00;97406.53;4979434;28;20218;-68
2024/01/12 00:49:49;;;;;;;66.70;20.40;;;;;;;-3.13;100.00;97410.16;4980273;28;20203;-68
2024/01/12 00:52:16;;;;;;;80.40;21.93;;;;;;;-3.10;100.00;97404.84;4979243;28;20219;-68
2024/01/12 00:54:43;;;;;;;72.70;21.67;;;;;;;-2.89;100.00;97415.06;4979079;28;20572;-68
2024/01/12 00:57:10;;;;;;;71.80;19.90;;;;;;;-2.99;100.00;97415.53;4978892;28;20226;-68
2024/01/12 00:59:36;;;;;;;63.90;21.97;;;;;;;-2.90;100.00;97415.94;4979577;28;20212;-68
2024/01/12 01:02:03;;;;;;;73.10;23.40;;;;;;;-2.79;100.00;97426.63;4978728;28;20700;-68
2024/01/12 01:04:29;;;;;;;73.40;23.00;;;;;;;-2.92;100.00;97415.16;4978751;28;20209;-68
2024/01/12 01:06:56;;;;;;;73.87;21.37;;;;;;;-2.73;100.00;97415.19;4979083;28;20240;-68
2024/01/12 01:09:22;;;;;;;73.97;22.70;;;;;;;-2.72;100.00;97411.72;4979191;28;20210;-68
2024/01/12 01:11:52;;;;;;;71.20;23.40;;;;;;;-2.59;100.00;97418.81;4979090;28;20237;-68
2024/01/12 01:14:19;;;;;;;76.77;22.13;;;;;;;-2.71;100.00;97418.53;4977999;28;20203;-68
2024/01/12 01:16:45;;;;;;;71.53;21.57;;;;;;;-2.94;100.00;97418.72;4979260;28;20231;-68
2024/01/12 01:19:12;;;;;;;81.67;21.17;;;;;;;-2.85;100.00;97420.88;4979122;28;20206;-68
2024/01/12 01:21:38;;;;;;;66.80;20.70;;;;;;;-2.67;100.00;97412.31;4979088;28;20195;-68
2024/01/12 01:24:05;;;;;;;68.33;20.60;;;;;;;-2.85;100.00;97415.72;4978595;28;20214;-68
2024/01/12 01:26:31;;;;;;;66.60;19.03;;;;;;;-2.76;100.00;97411.00;4978642;28;20253;-68
2024/01/12 01:28:59;;;;;;;70.90;22.50;;;;;;;-2.64;100.00;97414.78;4978152;28;20246;-68
2024/01/12 01:31:26;;;;;;;79.93;21.57;;;;;;;-2.69;100.00;97416.72;4978502;28;20203;-68
2024/01/12 01:33:53;;;;;;;63.57;19.60;;;;;;;-2.77;100.00;97416.25;4978500;28;20214;-68
2024/01/12 01:36:19;;;;;;;68.60;19.03;;;;;;;-2.46;100.00;97419.09;4977985;28;20246;-68
2024/01/12 01:38:46;;;;;;;78.23;21.50;;;;;;;-2.48;100.00;97418.31;4978566;28;20211;-68
2024/01/12 01:41:12;;;;;;;65.43;20.53;;;;;;;-2.43;100.00;97421.53;4978442;28;20210;-68
2024/01/12 01:43:39;;;;;;;86.53;21.40;;;;;;;-2.44;100.00;97419.84;4978273;28;20210;-68
2024/01/12 01:46:07;;;;;;;52.07;17.13;;;;;;;-2.28;100.00;97419.94;4977710;28;20618;-68
2024/01/12 01:48:34;;;;;;;57.50;18.10;;;;;;;-2.46;100.00;97414.75;4978737;28;20230;-68
2024/01/12 01:51:01;;;;;;;64.67;18.63;;;;;;;-2.28;100.00;97416.50;4978452;28;20741;-68
2024/01/12 01:53:28;;;;;;;69.63;21.13;;;;;;;-2.44;100.00;97419.84;4977980;28;20223;-67
2024/01/12 01:55:54;;;;;;;51.10;16.97;;;;;;;-2.49;100.00;97425.25;4977831;28;20228;-68
2024/01/12 01:58:21;;;;;;;61.27;16.87;;;;;;;-2.32;100.00;97427.88;4977696;28;21191;-68
2024/01/12 02:00:50;;;;;;;54.00;17.60;;;;;;;-2.22;100.00;97423.97;4977869;28;20204;-68
2024/01/12 02:03:19;;;;;;;55.10;17.17;;;;;;;-2.15;100.00;97431.34;4977901;28;20718;-68
2024/01/12 02:05:48;;;;;;;53.97;17.33;;;;;;;-2.11;100.00;97424.31;4980606;28;20243;-68
2024/01/12 02:08:15;;;;;;;51.57;15.73;;;;;;;-2.26;100.00;97423.25;4977841;28;20209;-68
2024/01/12 02:10:41;;;;;;;51.57;15.03;;;;;;;-2.22;100.00;97414.47;4977618;28;20219;-68
2024/01/12 02:13:08;;;;;;;54.77;15.60;;;;;;;-2.25;100.00;97414.63;4977512;28;20229;-68
2024/01/12 02:15:34;;;;;;;45.90;14.40;;;;;;;-2.42;100.00;97414.56;4977228;28;20232;-68
2024/01/12 02:18:01;;;;;;;49.63;16.37;;;;;;;-2.46;100.00;97407.03;4977859;28;20204;-68
2024/01/12 02:20:29;;;;;;;41.43;13.33;;;;;;;-2.40;100.00;97404.16;4982676;28;20712;-68
2024/01/12 02:22:56;;;;;;;51.20;16.40;;;;;;;-2.54;100.00;97410.88;4977729;28;20208;-68
2024/01/12 02:25:23;;;;;;;57.83;17.87;;;;;;;-2.56;100.00;97410.94;4977311;28;20232;-68
2024/01/12 02:27:50;;;;;;;53.63;17.70;;;;;;;-2.53;100.00;97402.22;4977482;28;20200;-68
2024/01/12 02:30:17;;;;;;;50.57;16.63;;;;;;;-2.63;100.00;97395.81;4977708;28;20209;-68
2024/01/12 02:32:43;;;;;;;47.53;16.00;;;;;;;-2.74;100.00;97400.63;4977519;28;20251;-68
2024/01/12 02:35:10;;;;;;;56.40;17.87;;;;;;;-2.70;100.00;97394.41;4977224;28;20216;-68
2024/01/12 02:37:36;;;;;;;50.93;16.07;;;;;;;-2.83;100.00;97386.38;4977466;28;20211;-68
2024/01/12 02:40:05;;;;;;;53.67;17.13;;;;;;;-2.82;100.00;97387.25;4977424;28;21366;-68
2024/01/12 02:42:31;;;;;;;40.60;13.17;;;;;;;-3.11;100.00;97377.38;4976989;28;20212;-68
2024/01/12 02:44:58;;;;;;;47.30;14.87;;;;;;;-3.08;100.00;97381.56;4976253;28;20669;-68
2024/01/12 02:47:24;;;;;;;62.23;19.37;;;;;;;-3.11;100.00;97382.53;4977236;28;20213;-68
2024/01/12 02:49:51;;;;;;;48.43;15.90;;;;;;;-2.97;100.00;97386.16;4977996;28;20200;-68
2024/01/12 02:52:17;;;;;;;58.60;17.97;;;;;;;-3.03;100.00;97389.94;4977386;28;20595;-68
2024/01/12 02:54:44;;;;;;;54.20;16.93;;;;;;;-3.10;100.00;97388.56;4976478;28;20203;-68
2024/01/12 02:57:12;;;;;;;53.90;17.80;;;;;;;-2.86;100.00;97390.88;4977633;28;20227;-67
2024/01/12 02:59:39;;;;;;;54.73;18.37;;;;;;;-3.01;100.00;97387.22;4978018;28;20266;-68
2024/01/12 03:02:05;;;;;;;52.93;16.90;;;;;;;-3.12;100.00;97390.34;4977117;28;20233;-68
2024/01/12 03:04:32;;;;;;;57.93;17.03;;;;;;;-3.14;100.00;97385.25;4976721;28;20697;-68
2024/01/12 03:06:58;;;;;;;59.73;17.67;;;;;;;-3.24;100.00;97375.44;4977050;28;21186;-68
2024/01/12 03:09:25;;;;;;;53.93;19.53;;;;;;;-3.19;100.00;97373.50;4977302;28;20214;-68
2024/01/12 03:11:51;;;;;;;57.33;20.03;;;;;;;-3.33;100.00;97376.66;4977438;28;20206;-68
2024/01/12 03:14:19;;;;;;;58.43;17.17;;;;;;;-3.19;100.00;97382.06;4976605;28;20600;-68
2024/01/12 03:16:45;;;;;;;63.57;19.83;;;;;;;-3.27;100.00;97371.25;4977010;28;20224;-68
2024/01/12 03:19:12;;;;;;;61.20;19.47;;;;;;;-3.39;100.00;97376.91;4977564;28;20204;-68
2024/01/12 03:21:38;;;;;;;64.37;19.57;;;;;;;-3.50;100.00;97380.84;4977005;28;20220;-68
2024/01/12 03:24:05;;;;;;;66.17;20.13;;;;;;;-3.56;100.00;97386.28;4976917;28;20218;-68
2024/01/12 03:26:36;;;;;;;60.43;18.63;;;;;;;-3.47;100.00;97384.13;4976901;28;20227;-68
2024/01/12 03:29:02;;;;;;;69.07;19.13;;;;;;;-3.60;100.00;97393.28;4976940;28;20211;-68
2024/01/12 03:31:30;;;;;;;65.17;19.30;;;;;;;-3.46;100.00;97392.72;4976915;28;21035;-68
2024/01/12 03:33:57;;;;;;;57.53;19.37;;;;;;;-3.42;100.00;97397.66;4977253;28;20219;-68
2024/01/12 03:36:24;;;;;;;67.60;20.30;;;;;;;-3.35;100.00;97383.59;4976189;28;20322;-68
2024/01/12 03:38:53;;;;;;;61.80;19.23;;;;;;;-3.33;100.00;97392.13;4977251;28;20214;-68
2024/01/12 03:41:19;;;;;;;71.17;21.37;;;;;;;-3.29;100.00;97396.22;4976825;28;20201;-68
2024/01/12 03:43:46;;;;;;;64.27;20.37;;;;;;;-3.32;100.00;97400.69;4976815;28;20290;-68
2024/01/12 03:46:12;;;;;;;57.87;20.00;;;;;;;-3.36;100.00;97410.31;4977007;28;20230;-68
2024/01/12 03:48:41;;;;;;;68.67;20.30;;;;;;;-3.20;100.00;97407.91;4976903;28;20243;-68
2024/01/12 03:51:08;;;;;;;65.27;20.00;;;;;;;-3.53;100.00;97411.91;4977429;28;20207;-68
2024/01/12 03:53:35;;;;;;;71.90;21.43;;;;;;;-3.59;100.00;97407.84;4976951;28;20705;-68
2024/01/12 03:58:37;;;;;;;68.17;19.77;;;;;;;-3.68;100.00;97393.69;4978460;28;20236;-68
2024/01/12 04:01:06;;;;;;;72.87;22.27;;;;;;;-3.59;100.00;97397.56;4980316;28;20737;-68
2024/01/12 04:03:32;;;;;;;67.13;20.43;;;;;;;-3.62;100.00;97395.09;4980019;28;20204;-68
2024/01/12 04:06:00;;;;;;;77.00;21.57;;;;;;;-3.63;100.00;97391.75;4979388;28;20222;-68
2024/01/12 04:08:26;;;;;;;71.73;21.63;;;;;;;-3.69;100.00;97395.44;4979818;28;20207;-68
2024/01/12 04:10:53;;;;;;;77.00;25.27;;;;;;;-3.63;100.00;97391.75;4979737;28;20207;-68
2024/01/12 04:13:19;;;;;;;112.87;32.77;;;;;;;-3.57;100.00;97394.91;4980189;28;20233;-68
2024/01/12 04:15:46;;;;;;;122.33;33.00;;;;;;;-3.67;100.00;97393.63;4979240;28;20238;-68
2024/01/12 04:18:12;;;;;;;85.80;26.60;;;;;;;-3.53;100.00;97397.28;4980279;28;20214;-68
2024/01/12 04:20:39;;;;;;;74.00;22.13;;;;;;;-3.65;100.00;97396.13;4980659;28;20203;-68
2024/01/12 04:23:07;;;;;;;64.07;22.00;;;;;;;-3.51;100.00;97398.06;4979782;28;20207;-68
2024/01/12 04:25:33;;;;;;;78.37;23.20;;;;;;;-3.86;100.00;97412.47;4978834;28;20227;-68
2024/01/12 04:28:00;;;;;;;82.83;23.60;;;;;;;-3.67;100.00;97405.66;4979652;28;20209;-68
2024/01/12 04:30:26;;;;;;;74.20;23.13;;;;;;;-3.77;100.00;97409.50;4980134;28;20629;-68
2024/01/12 04:32:54;;;;;;;72.57;22.33;;;;;;;-3.52;100.00;97405.84;4979548;28;20230;-68
2024/01/12 04:35:20;;;;;;;90.27;23.87;;;;;;;-3.62;100.00;97412.28;4979660;28;20218;-68
2024/01/12 04:37:47;;;;;;;88.80;24.83;;;;;;;-3.57;100.00;97403.47;4985025;28;20830;-68
2024/01/12 04:40:15;;;;;;;78.90;24.03;;;;;;;-3.40;100.00;97410.47;4979282;28;20211;-68
2024/01/12 04:42:41;;;;;;;88.03;25.00;;;;;;;-3.89;100.00;97421.16;4979786;28;20214;-68
2024/01/12 04:45:08;;;;;;;83.80;23.73;;;;;;;-3.81;100.00;97424.25;4978931;28;20225;-68
2024/01/12 04:47:34;;;;;;;101.43;29.57;;;;;;;-4.02;100.00;97425.13;4979512;28;20207;-68
2024/01/12 04:50:01;;;;;;;92.10;27.77;;;;;;;-3.88;100.00;97421.97;4979497;28;20203;-68
2024/01/12 04:52:27;;;;;;;85.80;25.20;;;;;;;-3.96;100.00;97427.47;4979415;28;20207;-68
2024/01/12 04:54:54;;;;;;;77.00;22.03;;;;;;;-3.87;100.00;97421.09;4978665;28;20215;-68
2024/01/12 04:57:22;;;;;;;88.83;23.23;;;;;;;-3.92;100.00;97428.16;4979243;28;20208;-68
2024/01/12 04:59:49;;;;;;;81.93;22.90;;;;;;;-3.79;100.00;97425.03;4979180;28;20200;-68
2024/01/12 05:02:15;;;;;;;74.80;21.83;;;;;;;-3.92;100.00;97428.16;4979046;28;20218;-68
2024/01/12 05:04:42;;;;;;;84.67;24.10;;;;;;;-4.03;100.00;97425.19;4982750;28;20204;-68
2024/01/12 05:07:08;;;;;;;82.03;21.80;;;;;;;-4.03;100.00;97432.91;4978921;28;20310;-68
2024/01/12 05:09:35;;;;;;;81.37;22.90;;;;;;;-3.99;100.00;97431.88;4978265;28;20217;-68
2024/01/12 05:12:04;;;;;;;76.17;24.03;;;;;;;-3.94;100.00;97433.38;4986333;28;20200;-68
2024/01/12 05:14:32;;;;;;;84.00;24.70;;;;;;;-3.72;100.00;97446.22;4978411;28;20227;-68
2024/01/12 05:16:58;;;;;;;81.07;23.13;;;;;;;-3.74;100.00;97448.84;4981092;28;20227;-68
2024/01/12 05:19:24;;;;;;;92.23;24.57;;;;;;;-3.79;100.00;97452.50;4978961;28;20825;-68
2024/01/12 05:21:51;;;;;;;85.67;24.10;;;;;;;-3.94;100.00;97455.72;4978459;28;20207;-68
2024/01/12 05:24:17;;;;;;;88.27;25.73;;;;;;;-4.19;100.00;97452.41;4978642;28;20301;-68
2024/01/12 05:26:44;;;;;;;88.87;25.70;;;;;;;-3.94;100.00;97448.81;4978779;28;20234;-68
2024/01/12 05:29:14;;;;;;;78.10;22.70;;;;;;;-3.78;100.00;97446.47;4978349;28;20591;-68
2024/01/12 05:31:43;;;;;;;76.90;24.17;;;;;;;-3.77;100.00;97450.72;4978366;28;20213;-68
2024/01/12 05:34:09;;;;;;;92.47;24.07;;;;;;;-3.71;100.00;97448.72;4977921;28;20219;-68
2024/01/12 05:36:36;;;;;;;82.07;23.83;;;;;;;-3.48;100.00;97446.03;4978263;28;20237;-68
2024/01/12 05:39:03;;;;;;;77.50;23.03;;;;;;;-3.47;100.00;97440.00;4978293;28;20729;-68
2024/01/12 05:41:30;;;;;;;82.77;22.30;;;;;;;-3.38;100.00;97445.59;4978375;28;20207;-68
2024/01/12 05:43:57;;;;;;;81.47;22.30;;;;;;;-3.53;100.00;97456.53;4978371;28;20207;-68
2024/01/12 05:46:24;;;;;;;75.53;23.40;;;;;;;-3.76;100.00;97452.41;4977185;28;20234;-68
2024/01/12 05:48:52;;;;;;;87.93;24.50;;;;;;;-3.62;100.00;97456.91;4978974;28;20793;-68
2024/01/12 05:51:18;;;;;;;74.30;22.17;;;;;;;-3.66;100.00;97457.09;4979228;28;20222;-68
2024/01/12 05:53:45;;;;;;;80.37;22.30;;;;;;;-3.79;100.00;97460.22;4977481;28;20238;-68
2024/01/12 05:56:11;;;;;;;88.47;23.73;;;;;;;-3.84;100.00;97459.59;4977457;28;20234;-68
2024/01/12 05:58:39;;;;;;;73.60;23.40;;;;;;;-3.76;100.00;97458.38;4980277;28;20205;-68
2024/01/12 06:01:05;;;;;;;86.03;25.43;;;;;;;-3.70;100.00;97460.72;4977002;28;20254;-68
2024/01/12 06:03:32;;;;;;;88.73;24.63;;;;;;;-3.68;100.00;97461.47;4976898;28;20199;-68
2024/01/12 06:06:00;;;;;;;80.53;23.17;;;;;;;-3.63;100.00;97464.69;4980362;28;20277;-68
2024/01/12 06:08:29;;;;;;;83.40;24.30;;;;;;;-3.80;100.00;97466.28;4976873;28;20210;-68
2024/01/12 06:10:55;;;;;;;65.23;20.77;;;;;;;-3.70;100.00;97462.44;4979193;28;20203;-68
2024/01/12 06:13:22;;;;;;;65.87;21.10;;;;;;;-3.65;100.00;97460.50;4979707;28;20236;-68
2024/01/12 06:15:48;;;;;;;72.43;22.90;;;;;;;-3.64;100.00;97457.03;4978522;28;21024;-68
2024/01/12 06:18:15;;;;;;;90.23;25.33;;;;;;;-3.50;100.00;97461.56;4980503;28;20202;-68
2024/01/12 06:20:41;;;;;;;79.40;22.43;;;;;;;-3.63;100.00;97460.41;4979537;28;20630;-68
2024/01/12 06:23:09;;;;;;;77.40;24.40;;;;;;;-4.09;100.00;97461.44;4977262;28;20213;-68
2024/01/12 06:25:37;;;;;;;77.60;21.60;;;;;;;-3.95;100.00;97454.84;4984750;28;20265;-68
2024/01/12 06:28:05;;;;;;;71.10;23.00;;;;;;;-3.92;100.00;97461.63;4985134;28;20202;-68
2024/01/12 06:30:32;;;;;;;79.50;24.20;;;;;;;-4.09;100.00;97454.56;4980466;28;20203;-68
2024/01/12 06:32:59;;;;;;;72.70;19.73;;;;;;;-4.04;100.00;97457.78;4977844;28;20207;-68
2024/01/12 06:35:26;;;;;;;51.13;18.07;;;;;;;-4.01;100.00;97464.56;4976968;28;20230;-68
2024/01/12 06:37:52;;;;;;;81.40;21.10;;;;;;;-3.95;100.00;97472.88;4977507;28;20203;-68
2024/01/12 06:40:20;;;;;;;82.50;24.67;;;;;;;-3.77;100.00;97466.16;4977634;28;20213;-68
2024/01/12 06:42:47;;;;;;;75.27;22.57;;;;;;;-4.00;100.00;97466.25;4977921;28;20569;-68
2024/01/12 06:45:14;;;;;;;81.83;24.63;;;;;;;-3.99;100.00;97466.16;4976528;28;20223;-68
2024/01/12 06:47:40;;;;;;;66.43;22.40;;;;;;;-3.90;100.00;97467.56;4978028;28;20215;-68
2024/01/12 06:50:07;;;;;;;84.03;23.40;;;;;;;-4.03;100.00;97466.38;4979458;28;20210;-67
2024/01/12 06:52:34;;;;;;;68.70;22.93;;;;;;;-3.94;100.00;97468.59;4977074;28;20659;-67
2024/01/12 06:55:00;;;;;;;77.50;22.67;;;;;;;-3.95;100.00;97456.59;4983455;28;20237;-67
2024/01/12 06:57:28;;;;;;;78.00;24.87;;;;;;;-3.74;100.00;97461.75;4977294;28;20209;-68
2024/01/12 06:59:55;;;;;;;80.43;22.73;;;;;;;-4.13;100.00;97462.47;4976982;28;20214;-68
2024/01/12 07:02:21;;;;;;;81.33;24.30;;;;;;;-3.98;100.00;97462.72;4978989;28;20593;-68
2024/01/12 07:04:48;;;;;;;69.27;21.33;;;;;;;-3.82;100.00;97457.78;4977269;28;20214;-68
2024/01/12 07:07:15;;;;;;;77.83;25.87;;;;;;;-3.75;100.00;97461.81;4981071;28;20226;-68
2024/01/12 07:09:42;;;;;;;78.80;24.83;;;;;;;-3.72;100.00;97459.09;4976991;28;20845;-68
2024/01/12 07:12:09;;;;;;;91.33;24.60;;;;;;;-3.62;100.00;97462.03;4976612;28;20218;-68
2024/01/12 07:14:37;;;;;;;80.13;23.37;;;;;;;-3.66;100.00;97464.81;4976684;28;20231;-68
2024/01/12 07:17:04;;;;;;;83.40;25.47;;;;;;;-4.10;100.00;97462.34;4979271;28;20223;-68
2024/01/12 07:19:30;;;;;;;72.60;23.37;;;;;;;-4.19;100.00;97466.13;4976963;28;20206;-68
2024/01/12 07:21:57;;;;;;;79.13;23.23;;;;;;;-4.15;100.00;97459.97;4977269;28;20212;-68
2024/01/12 07:24:23;;;;;;;75.23;24.20;;;;;;;-4.16;100.00;97462.59;4976344;28;20207;-68
2024/01/12 07:26:49;;;;;;;74.70;21.90;;;;;;;-3.88;100.00;97456.31;4975655;28;20230;-68
2024/01/12 07:29:16;;;;;;;78.13;23.47;;;;;;;-3.92;100.00;97456.47;4976620;28;20199;-68
2024/01/12 07:31:44;;;;;;;76.03;23.17;;;;;;;-3.74;100.00;97450.56;4978329;28;20265;-68
2024/01/12 07:34:10;;;;;;;77.13;21.97;;;;;;;-3.84;100.00;97449.31;4980066;28;20224;-68
2024/01/12 07:36:37;;;;;;;79.07;23.83;;;;;;;-3.82;100.00;97450.06;4980243;28;20713;-68
2024/01/12 07:39:04;;;;;;;80.00;22.80;;;;;;;-4.32;100.00;97455.53;4982429;28;20337;-68
2024/01/12 07:41:30;;;;;;;80.83;24.20;;;;;;;-4.05;100.00;97463.00;4987252;28;20205;-68
2024/01/12 07:43:56;;;;;;;79.80;22.97;;;;;;;-4.18;100.00;97464.38;4980651;28;20219;-68
2024/01/12 07:46:23;;;;;;;82.30;22.83;;;;;;;-4.32;100.00;97465.81;4979684;28;20242;-68
2024/01/12 07:48:51;;;;;;;77.97;24.63;;;;;;;-4.18;100.00;97461.81;4980145;28;20669;-68
2024/01/12 07:51:18;;;;;;;78.07;24.90;;;;;;;-4.25;100.00;97457.81;4979975;28;20534;-68
2024/01/12 07:53:45;;;;;;;74.00;25.20;;;;;;;-3.91;100.00;97461.56;4982138;28;20210;-68
2024/01/12 07:56:11;;;;;;;85.10;25.40;;;;;;;-3.82;100.00;97461.19;4986163;28;20224;-68
2024/01/12 07:58:38;;;;;;;72.13;22.47;;;;;;;-3.82;100.00;97463.75;4979693;28;20212;-68
2024/01/12 08:01:05;;;;;;;77.83;22.63;;;;;;;-3.69;100.00;97458.97;4979859;28;20247;-68
2024/01/12 08:03:32;;;;;;;62.33;18.83;;;;;;;-3.96;100.00;97460.06;4980441;28;20259;-68
2024/01/12 08:06:00;;;;;;;71.57;22.43;;;;;;;-3.84;100.00;97459.59;4979256;28;20266;-68
2024/01/12 08:08:27;;;;;;;74.03;24.10;;;;;;;-4.07;100.00;97463.06;4983618;28;20205;-68
2024/01/12 08:10:53;;;;;;;71.67;21.47;;;;;;;-4.17;100.00;97463.50;4979955;28;20214;-68
2024/01/12 08:13:20;;;;;;;77.70;23.63;;;;;;;-3.97;100.00;97468.69;4983507;28;20207;-68
2024/01/12 08:15:46;;;;;;;80.20;22.47;;;;;;;-4.20;100.00;97484.19;4979309;28;20232;-68
2024/01/12 08:18:13;;;;;;;80.17;24.93;;;;;;;-4.12;100.00;97483.00;4979380;28;20207;-68
2024/01/12 08:20:39;;;;;;;76.33;22.97;;;;;;;-3.85;100.00;97486.25;4979889;28;20581;-68
2024/01/12 08:23:07;;;;;;;72.27;22.53;;;;;;;-3.84;100.00;97490.50;4979283;28;20210;-69
2024/01/12 08:25:33;;;;;;;77.57;22.83;;;;;;;-3.98;100.00;97490.19;4979229;28;20219;-68
2024/01/12 08:28:00;;;;;;;73.97;22.60;;;;;;;-3.95;100.00;97488.31;4979660;28;20214;-68
2024/01/12 08:30:26;;;;;;;74.97;22.17;;;;;;;-4.01;100.00;97492.88;4983829;28;20582;-68
2024/01/12 08:32:54;;;;;;;68.83;20.03;;;;;;;-3.99;100.00;97507.34;4983790;28;20205;-68
2024/01/12 08:35:20;;;;;;;71.80;22.77;;;;;;;-3.95;100.00;97513.22;4978551;28;20223;-68
2024/01/12 08:37:47;;;;;;;48.87;16.90;;;;;;;-3.68;100.00;97507.81;4978970;28;20562;-68
2024/01/12 08:40:15;;;;;;;70.67;20.37;;;;;;;-3.40;100.00;97516.97;4983052;28;20470;-68
2024/01/12 08:42:41;;;;;;;78.30;23.27;;;;;;;-3.35;100.00;97509.03;4978404;28;20210;-68
2024/01/12 08:45:08;;;;;;;64.80;20.30;;;;;;;-3.16;100.00;97508.19;4987055;28;20196;-68
2024/01/12 08:47:35;;;;;;;71.80;20.53;;;;;;;-3.22;100.00;97508.47;4978748;28;20211;-68
2024/01/12 08:50:01;;;;;;;75.23;22.00;;;;;;;-3.05;100.00;97505.16;4982904;28;20203;-68
2024/01/12 08:52:29;;;;;;;71.53;22.07;;;;;;;-3.12;100.00;97514.91;4979360;28;20213;-68
2024/01/12 08:54:55;;;;;;;89.13;24.10;;;;;;;-3.10;100.00;97517.44;4978297;28;20227;-68
2024/01/12 08:57:23;;;;;;;71.97;21.60;;;;;;;-3.20;100.00;97524.69;4978542;28;20212;-68
2024/01/12 08:59:50;;;;;;;68.03;21.50;;;;;;;-3.02;100.00;97514.47;4979097;28;20214;-68
2024/01/12 09:02:16;;;;;;;75.73;22.23;;;;;;;-2.92;100.00;97512.31;4978694;28;20254;-68
2024/01/12 09:04:43;;;;;;;72.70;21.13;;;;;;;-3.15;100.00;97519.38;4977937;28;20208;-68
2024/01/12 09:07:09;;;;;;;78.93;20.37;;;;;;;-2.91;100.00;97514.84;4978772;28;20215;-68
2024/01/12 09:09:36;;;;;;;62.53;20.57;;;;;;;-2.77;100.00;97517.66;4978796;28;20208;-68
2024/01/12 09:12:02;;;;;;;62.60;19.23;;;;;;;-3.30;100.00;97525.16;4978207;28;20208;-68
2024/01/12 09:14:30;;;;;;;55.73;16.93;;;;;;;-2.89;100.00;97517.34;4978134;28;20235;-68
2024/01/12 09:16:57;;;;;;;71.43;19.20;;;;;;;-3.02;100.00;97522.22;4978630;28;20985;-68
2024/01/12 09:19:23;;;;;;;63.30;19.57;;;;;;;-3.04;100.00;97515.44;4978735;28;20203;-68
2024/01/12 09:21:50;;;;;;;49.67;18.37;;;;;;;-3.08;100.00;97515.63;4978534;28;20565;-68
2024/01/12 09:24:17;;;;;;;60.87;18.13;;;;;;;-3.13;100.00;97518.41;4977969;28;20203;-68
2024/01/12 09:26:44;;;;;;;55.40;18.27;;;;;;;-3.18;100.00;97519.47;4986126;28;20223;-68
2024/01/12 09:29:10;;;;;;;54.00;16.87;;;;;;;-3.01;100.00;97518.69;4977519;28;20249;-68
2024/01/12 09:31:38;;;;;;;51.60;16.43;;;;;;;-2.84;100.00;97521.41;4978358;28;20208;-68
2024/01/12 09:34:05;;;;;;;58.10;18.97;;;;;;;-3.46;100.00;97534.41;4977681;28;20204;-68
2024/01/12 09:36:31;;;;;;;52.77;18.13;;;;;;;-2.89;100.00;97532.81;4978146;28;20249;-68
2024/01/12 09:38:58;;;;;;;62.53;19.00;;;;;;;-2.65;100.00;97527.44;4980377;28;20562;-68
2024/01/12 09:41:32;;;;;;;67.97;20.03;;;;;;;-2.47;100.00;97531.78;4983522;28;20208;-68
2024/01/12 09:44:00;;;;;;;55.87;19.13;;;;;;;-2.37;100.00;97539.06;4984767;28;20219;-68
2024/01/12 09:46:29;;;;;;;57.70;17.53;;;;;;;-2.33;100.00;97532.88;4977294;28;20772;-68
2024/01/12 09:48:58;;;;;;;50.90;18.33;;;;;;;-2.50;100.00;97525.94;4978117;28;20211;-68
2024/01/12 09:51:27;;;;;;;60.43;21.13;;;;;;;-2.37;100.00;97523.59;4977979;28;20300;-68
2024/01/12 09:53:54;;;;;;;53.93;17.67;;;;;;;-2.28;100.00;97517.16;4977640;28;20323;-68
2024/01/12 09:56:21;;;;;;;68.80;19.37;;;;;;;-2.29;100.00;97518.91;4980445;28;20780;-68
2024/01/12 09:58:48;;;;;;;51.63;17.50;;;;;;;-3.22;100.00;97529.09;4978522;28;20289;-68
2024/01/12 10:01:17;;;;;;;56.93;18.90;;;;;;;-2.89;100.00;97525.94;4977618;28;20709;-68
2024/01/12 10:03:47;;;;;;;43.77;15.53;;;;;;;-2.74;100.00;97511.53;4977655;28;20259;-68
2024/01/12 10:06:15;;;;;;;57.60;19.23;;;;;;;-2.45;100.00;97503.34;4977223;28;20215;-69
2024/01/12 10:08:42;;;;;;;54.93;17.40;;;;;;;-2.33;100.00;97512.22;4977774;28;20678;-68
2024/01/12 10:11:09;;;;;;;48.87;17.13;;;;;;;-2.83;100.00;97517.09;4981110;28;20201;-68
2024/01/12 10:13:35;;;;;;;60.50;19.03;;;;;;;-2.70;100.00;97519.09;4977334;28;20209;-68
2024/01/12 10:16:02;;;;;;;51.97;16.17;;;;;;;-2.34;100.00;97507.97;4977026;28;20236;-68
2024/01/12 10:18:29;;;;;;;57.90;18.80;;;;;;;-2.24;100.00;97498.91;4977586;28;20300;-68
2024/01/12 10:20:56;;;;;;;57.07;18.53;;;;;;;-2.38;100.00;97500.41;4978317;28;20580;-68
2024/01/12 10:23:26;;;;;;;50.97;17.93;;;;;;;-2.11;100.00;97502.59;4977982;28;20235;-68
2024/01/12 10:25:59;;;;;;;59.87;18.10;;;;;;;-1.63;100.00;97502.84;4980641;28;20345;-68
2024/01/12 10:28:28;;;;;;;56.33;18.17;;;;;;;-1.67;100.00;97499.59;4976946;28;20208;-68
2024/01/12 10:30:54;;;;;;;61.83;18.77;;;;;;;-1.92;100.00;97485.34;4977072;28;20214;-68
2024/01/12 10:33:21;;;;;;;56.93;18.67;;;;;;;-1.93;100.00;97481.06;4977234;28;20285;-68
2024/01/12 10:35:51;;;;;;;48.03;17.03;;;;;;;-1.60;100.00;97476.88;4980424;28;20237;-68
2024/01/12 10:38:20;;;;;;;58.63;18.73;;;;;;;-1.71;100.00;97486.88;4977649;28;20583;-68
2024/01/12 10:40:48;;;;;;;48.47;17.33;;;;;;;-1.81;100.00;97493.41;4977702;28;20911;-68
2024/01/12 10:43:19;;;;;;;49.97;14.90;;;;;;;-1.66;100.00;97501.25;4976871;28;20236;-68
2024/01/12 10:45:51;;;;;;;48.33;16.77;;;;;;;-1.49;100.00;97496.13;4976482;28;20231;-68
2024/01/12 10:48:24;;;;;;;45.80;15.10;;;;;;;-1.77;100.00;97480.28;4976795;28;20210;-68
2024/01/12 10:50:58;;;;;;;52.83;17.33;;;;;;;-1.81;100.00;97485.66;4977225;28;20220;-68
2024/01/12 10:53:31;;;;;;;50.10;16.23;;;;;;;-1.49;100.00;97490.97;4977380;28;20210;-68
2024/01/12 10:56:00;;;;;;;45.30;14.93;;;;;;;-1.47;100.00;97489.13;4977061;28;20263;-68
2024/01/12 10:58:28;;;;;;;48.40;16.17;;;;;;;-1.83;100.00;97496.06;4977351;28;20214;-68
2024/01/12 11:00:55;;;;;;;57.17;17.57;;;;;;;-1.70;100.00;97489.38;4976770;28;20241;-68
2024/01/12 11:03:22;;;;;;;54.30;15.63;;;;;;;-1.63;100.00;97493.38;4976678;28;20216;-68
2024/01/12 11:05:49;;;;;;;50.40;18.97;;;;;;;-1.59;100.00;97491.44;4976000;28;20225;-68
2024/01/12 11:08:16;;;;;;;55.77;19.03;;;;;;;-1.72;100.00;97495.53;4980529;28;20580;-68
2024/01/12 11:10:48;;;;;;;55.13;17.33;;;;;;;-1.55;100.00;97495.59;4981342;28;20211;-68